createdAt,value
2022-08-17T00:03:57.886Z,63.05
2022-08-17T00:14:27.347Z,63.16
2022-08-17T00:24:56.209Z,63.03
2022-08-17T00:35:28.021Z,62.74
2022-08-17T00:45:57.331Z,62.37
2022-08-17T00:56:31.424Z,62.96
2022-08-17T01:07:03.047Z,63.21
2022-08-17T01:17:31.967Z,63.25
2022-08-17T01:28:00.918Z,63.28
2022-08-17T01:38:32.128Z,63.27
2022-08-17T01:49:01.997Z,63.56
2022-08-17T01:59:30.894Z,63.44
2022-08-17T02:09:59.737Z,63.51
2022-08-17T02:20:41.538Z,63.81
2022-08-17T02:31:13.862Z,63.92
2022-08-17T02:41:44.072Z,63.69
2022-08-17T02:52:12.917Z,64.01
2022-08-17T03:02:43.788Z,64.05
2022-08-17T03:13:14.909Z,63.56
2022-08-17T03:23:43.681Z,63.60
2022-08-17T03:34:12.554Z,63.46
2022-08-17T03:44:41.504Z,63.27
2022-08-17T03:55:30.749Z,63.55
2022-08-17T04:06:05.944Z,63.35
2022-08-17T04:16:36.293Z,63.44
2022-08-17T04:27:05.248Z,63.80
2022-08-17T04:37:34.097Z,63.62
2022-08-17T04:48:03.104Z,64.26
2022-08-17T04:58:32.011Z,64.28
2022-08-17T05:09:01.583Z,64.78
2022-08-17T05:19:30.585Z,65.62
2022-08-17T05:29:59.576Z,66.86
2022-08-17T05:40:32.768Z,67.08
2022-08-17T05:51:15.621Z,66.58
2022-08-17T06:01:54.806Z,65.91
2022-08-17T06:12:36.244Z,64.83
2022-08-17T06:23:10.613Z,63.57
2022-08-17T06:33:41.919Z,62.85
2022-08-17T06:44:43.682Z,61.96
2022-08-17T06:55:17.691Z,60.26
2022-08-17T07:05:53.581Z,59.51
2022-08-17T07:16:28.788Z,58.66
2022-08-17T07:27:10.178Z,57.65
2022-08-17T07:37:39.743Z,56.00
2022-08-17T07:48:21.953Z,55.28
2022-08-17T07:59:07.076Z,54.42
2022-08-17T08:09:43.599Z,53.13
2022-08-17T08:20:53.200Z,53.29
2022-08-17T08:31:25.946Z,52.81
2022-08-17T08:42:02.504Z,52.45
2022-08-17T08:52:54.948Z,52.05
2022-08-17T09:03:54.116Z,51.57
2022-08-17T09:14:29.190Z,50.33
2022-08-17T09:25:04.794Z,49.63
2022-08-17T09:35:37.993Z,48.44
2022-08-17T09:46:13.872Z,48.41
2022-08-17T09:57:18.145Z,48.46
2022-08-17T10:07:52.968Z,47.39
2022-08-17T10:18:34.699Z,46.75
2022-08-17T10:29:08.200Z,46.69
2022-08-17T10:39:52.098Z,46.63
2022-08-17T10:51:02.604Z,46.07
2022-08-17T11:02:16.008Z,45.61
2022-08-17T11:13:01.555Z,45.43
2022-08-17T11:23:59.520Z,44.22
2022-08-17T11:34:32.046Z,44.89
2022-08-17T11:45:05.385Z,44.23
2022-08-17T11:56:08.457Z,43.42
2022-08-17T12:06:49.990Z,42.46
2022-08-17T12:17:39.782Z,42.23
2022-08-17T12:28:23.941Z,42.71
2022-08-17T12:39:12.926Z,42.62
2022-08-17T12:49:44.954Z,42.09
2022-08-17T13:00:18.951Z,42.65
2022-08-17T13:10:58.379Z,41.97
2022-08-17T13:21:33.503Z,41.98
2022-08-17T13:32:19.728Z,42.00
2022-08-17T13:42:52.892Z,43.19
2022-08-17T13:53:26.731Z,42.23
2022-08-17T14:03:55.661Z,42.29
2022-08-17T14:14:26.048Z,41.63
2022-08-17T14:24:55.299Z,40.61
2022-08-17T14:35:25.702Z,41.51
2022-08-17T14:45:54.651Z,40.99
2022-08-17T14:56:23.862Z,41.07
2022-08-17T15:06:53.254Z,40.30
2022-08-17T15:17:22.278Z,40.59
2022-08-17T15:27:51.667Z,41.13
2022-08-17T15:38:22.344Z,41.19
2022-08-17T15:48:53.238Z,41.83
2022-08-17T15:59:22.636Z,41.92
2022-08-17T16:09:55.834Z,42.29
2022-08-17T16:20:24.907Z,42.58
2022-08-17T16:30:53.894Z,42.38
2022-08-17T16:41:36.516Z,42.56
2022-08-17T16:52:06.587Z,43.20
2022-08-17T17:02:37.698Z,43.64
2022-08-17T17:13:09.311Z,44.81
2022-08-17T17:23:53.451Z,45.97
2022-08-17T17:34:23.789Z,47.34
2022-08-17T17:45:00.763Z,48.56
2022-08-17T17:55:47.588Z,48.50
2022-08-17T18:06:27.980Z,48.86
2022-08-17T18:16:59.819Z,49.41
2022-08-17T18:27:35.259Z,49.92
2022-08-17T18:38:20.579Z,49.83
2022-08-17T18:48:59.041Z,49.81
2022-08-17T18:59:35.250Z,51.50
2022-08-17T19:10:13.424Z,52.50
2022-08-17T19:20:49.251Z,52.53
2022-08-17T19:31:22.322Z,53.49
2022-08-17T19:42:00.962Z,53.83
2022-08-17T19:52:49.653Z,54.36
2022-08-17T20:03:24.449Z,54.54
2022-08-17T20:14:01.375Z,54.78
2022-08-17T20:24:37.852Z,55.35
2022-08-17T20:35:24.019Z,55.56
2022-08-17T20:46:25.071Z,55.85
2022-08-17T20:56:58.021Z,56.31
2022-08-17T21:07:32.952Z,57.20
2022-08-17T21:18:16.761Z,57.72
2022-08-17T21:29:00.379Z,57.46
2022-08-17T21:39:41.966Z,58.23
2022-08-17T21:50:21.565Z,59.24
2022-08-17T22:01:10.182Z,59.70
2022-08-17T22:11:56.118Z,60.25
2022-08-17T22:22:29.679Z,60.28
2022-08-17T22:32:59.349Z,60.43
2022-08-17T22:43:31.603Z,60.42
2022-08-17T22:54:32.007Z,60.45
2022-08-17T23:05:21.927Z,59.88
2022-08-17T23:15:52.659Z,60.17
2022-08-17T23:26:23.268Z,60.50
2022-08-17T23:36:52.572Z,60.76
2022-08-17T23:47:21.753Z,61.19
2022-08-17T23:57:50.885Z,61.03
